Time;durP1;ratioP1;P1;durP2;ratioP2;P2;SDS_P1;SDS_P2;PMS_P1;PMS_P2;Temp;Humidity;BMP_temperature;BMP_pressure;BME280_temperature;BME280_humidity;BME280_pressure;Samples;Min_cycle;Max_cycle;Signal;HPM_P1;HPM_P2
2021/07/24 00:02:05;;;;;;;62.47;22.50;;;;;;;16.85;78.10;97052.81;5105101;28;20061;-63
2021/07/24 00:04:32;;;;;;;100.28;33.25;;;;;;;16.79;78.15;97037.69;5104877;28;20519;-62
2021/07/24 00:07:00;;;;;;;49.10;19.15;;;;;;;16.78;78.39;97032.50;5104585;28;20456;-64
2021/07/24 00:09:29;;;;;;;37.70;16.02;;;;;;;16.88;78.63;97042.81;5106441;28;20506;-62
2021/07/24 00:11:57;;;;;;;25.63;14.27;;;;;;;16.88;77.28;97037.22;5104471;28;20070;-61
2021/07/24 00:14:24;;;;;;;15.95;12.00;;;;;;;16.81;77.64;97031.66;5104861;28;20063;-63
2021/07/24 00:16:51;;;;;;;17.48;12.82;;;;;;;16.87;76.92;97035.63;5106298;28;20065;-64
2021/07/24 00:19:17;;;;;;;19.08;12.63;;;;;;;16.76;76.37;97040.50;5106576;28;20055;-62
2021/07/24 00:21:44;;;;;;;16.33;12.40;;;;;;;16.11;76.60;96958.22;5106039;28;20051;-62
2021/07/24 00:24:11;;;;;;;15.57;11.77;;;;;;;16.61;77.07;97031.44;5104805;28;20051;-62
2021/07/24 00:26:38;;;;;;;17.90;11.85;;;;;;;16.43;77.18;96988.75;5104233;28;20056;-63
2021/07/24 00:29:05;;;;;;;16.92;12.32;;;;;;;16.71;77.11;97032.56;5104228;28;20055;-62
2021/07/24 00:31:34;;;;;;;16.05;12.68;;;;;;;16.40;76.32;96986.78;5104442;28;20059;-63
2021/07/24 00:34:01;;;;;;;18.58;11.95;;;;;;;16.70;76.16;97042.16;5106175;28;20109;-62
2021/07/24 00:36:29;;;;;;;15.60;11.93;;;;;;;16.04;77.27;96952.69;5104589;28;20061;-62
2021/07/24 00:38:59;;;;;;;15.88;12.65;;;;;;;16.56;76.80;97024.28;5104645;28;20089;-61
2021/07/24 00:41:36;;;;;;;19.10;12.13;;;;;;;16.16;77.06;96993.31;5103937;28;20052;-63
2021/07/24 00:44:04;;;;;;;20.80;11.88;;;;;;;16.28;77.64;97020.81;5104137;28;20048;-62
2021/07/24 00:46:32;;;;;;;19.50;11.75;;;;;;;15.72;77.54;96929.72;5105628;28;20051;-62
2021/07/24 00:49:01;;;;;;;14.90;11.25;;;;;;;16.23;78.37;97032.44;5104118;28;20056;-63
2021/07/24 00:51:29;;;;;;;13.30;10.90;;;;;;;16.24;78.31;97029.22;5105619;28;20048;-64
2021/07/24 00:53:56;;;;;;;14.50;11.45;;;;;;;16.17;78.75;97032.03;5105976;28;20514;-62
2021/07/24 00:56:26;;;;;;;15.38;10.63;;;;;;;15.76;78.97;96975.16;5106142;27;20059;-62
2021/07/24 00:58:55;;;;;;;16.90;11.25;;;;;;;16.12;79.22;97021.28;5104385;28;20067;-62
2021/07/24 01:01:22;;;;;;;13.45;10.02;;;;;;;16.24;78.75;97023.63;5105252;27;20132;-62
2021/07/24 01:03:49;;;;;;;15.00;9.65;;;;;;;16.10;79.33;97029.31;5105193;28;20509;-62
2021/07/24 01:06:16;;;;;;;12.93;9.98;;;;;;;15.99;80.35;97028.56;5105392;27;20067;-62
2021/07/24 01:08:44;;;;;;;15.68;10.10;;;;;;;15.96;79.72;97018.19;5104309;28;20120;-62
2021/07/24 01:11:12;;;;;;;14.35;9.60;;;;;;;16.04;78.96;97019.75;5105440;28;20092;-61
2021/07/24 01:13:40;;;;;;;18.13;10.60;;;;;;;15.91;80.02;97013.03;5105830;28;20079;-62
2021/07/24 01:16:08;;;;;;;13.32;10.48;;;;;;;16.04;79.45;97013.34;5103945;28;20453;-63
2021/07/24 01:18:36;;;;;;;13.98;10.45;;;;;;;16.03;79.88;97012.56;5104462;28;20048;-64
2021/07/24 01:21:06;;;;;;;12.05;10.05;;;;;;;16.02;79.64;97016.56;5104555;28;20445;-63
2021/07/24 01:23:33;;;;;;;17.38;10.65;;;;;;;16.01;79.76;96998.19;5103567;28;20036;-63
2021/07/24 01:26:01;;;;;;;12.82;10.10;;;;;;;16.04;78.80;96996.59;5103299;28;20080;-61
2021/07/24 01:28:33;;;;;;;13.68;10.13;;;;;;;16.09;78.55;97005.34;5102950;28;20052;-61
2021/07/24 01:31:03;;;;;;;12.88;10.30;;;;;;;16.00;78.99;97013.38;5104940;28;20090;-62
2021/07/24 01:33:30;;;;;;;15.50;10.20;;;;;;;15.97;79.03;97008.59;5103415;28;20431;-60
2021/07/24 01:35:57;;;;;;;14.65;10.25;;;;;;;15.97;79.20;97005.81;5102883;28;20047;-62
2021/07/24 01:38:23;;;;;;;14.43;10.07;;;;;;;16.03;78.93;97006.97;5103369;28;20047;-62
2021/07/24 01:40:50;;;;;;;16.10;10.57;;;;;;;15.84;78.89;96971.13;5102445;28;20055;-62
2021/07/24 01:43:17;;;;;;;13.65;10.23;;;;;;;15.94;79.06;97003.03;5103217;28;20138;-61
2021/07/24 01:45:44;;;;;;;14.15;9.85;;;;;;;15.55;79.24;96932.56;5102645;28;20449;-61
2021/07/24 01:48:17;;;;;;;11.35;9.13;;;;;;;15.82;79.72;96990.28;5104190;28;20055;-61
2021/07/24 01:53:32;;;;;;;14.98;10.25;;;;;;;15.71;80.38;96995.13;5104249;28;20062;-62
2021/07/24 01:56:06;;;;;;;14.75;11.55;;;;;;;13.11;81.07;96599.88;5104252;28;20063;-63
2021/07/24 01:58:35;;;;;;;18.17;12.18;;;;;;;15.62;81.25;96991.97;5102696;28;20047;-62
2021/07/24 02:01:05;;;;;;;18.33;13.23;;;;;;;15.57;81.07;96972.84;5102787;28;20051;-62
2021/07/24 02:03:43;;;;;;;15.65;12.35;;;;;;;15.69;81.35;96997.53;5102911;28;20098;-62
2021/07/24 02:06:11;;;;;;;21.10;13.32;;;;;;;15.82;80.73;96990.28;5102875;28;20410;-62
2021/07/24 02:08:42;;;;;;;16.13;12.20;;;;;;;15.80;80.85;96987.13;5104682;28;20058;-61
2021/07/24 02:11:08;;;;;;;19.75;13.18;;;;;;;15.22;81.16;96925.50;5104312;28;20059;-62
2021/07/24 02:13:35;;;;;;;16.40;12.45;;;;;;;15.75;80.89;96995.91;5103964;28;20114;-61
2021/07/24 02:16:04;;;;;;;16.45;12.63;;;;;;;15.81;80.27;96994.28;5102395;28;20517;-63
2021/07/24 02:18:31;;;;;;;16.27;12.57;;;;;;;15.84;80.58;96999.06;5102649;28;20055;-61
2021/07/24 02:20:57;;;;;;;19.10;13.48;;;;;;;15.84;80.12;96996.28;5102570;28;20062;-62
2021/07/24 02:23:24;;;;;;;16.27;12.13;;;;;;;15.92;79.94;96992.25;5104814;28;20055;-62
2021/07/24 02:25:51;;;;;;;17.30;12.02;;;;;;;15.96;79.65;96995.84;5104509;28;20450;-62
2021/07/24 02:28:18;;;;;;;14.05;10.90;;;;;;;15.03;79.62;96847.84;5104087;28;20138;-61
2021/07/24 02:30:45;;;;;;;15.25;11.32;;;;;;;15.61;79.21;96945.72;5103639;28;20051;-64
2021/07/24 02:33:12;;;;;;;15.27;10.95;;;;;;;15.63;79.15;96943.31;5102160;28;20526;-62
2021/07/24 02:35:39;;;;;;;14.52;10.70;;;;;;;15.71;78.96;96950.44;5103585;28;20070;-64
2021/07/24 02:38:06;;;;;;;12.35;9.90;;;;;;;15.94;78.83;96998.25;5102653;28;20055;-61
2021/07/24 02:40:34;;;;;;;12.60;9.75;;;;;;;15.82;79.52;96995.88;5102226;28;20051;-61
2021/07/24 02:43:00;;;;;;;13.45;9.48;;;;;;;15.52;79.23;96942.56;5102372;28;20150;-63
2021/07/24 02:45:27;;;;;;;14.45;10.15;;;;;;;15.30;79.39;96929.81;5102334;28;20055;-61
2021/07/24 02:47:54;;;;;;;15.02;9.95;;;;;;;15.96;79.02;96993.03;5102129;28;20068;-60
2021/07/24 02:50:21;;;;;;;11.68;9.23;;;;;;;15.74;79.76;96994.34;5102160;28;20481;-61
2021/07/24 02:52:48;;;;;;;12.77;9.68;;;;;;;15.68;79.93;96979.19;5106869;28;20052;-63
2021/07/24 02:55:15;;;;;;;13.07;9.70;;;;;;;15.43;79.51;96931.03;5108032;28;20066;-61
2021/07/24 02:57:42;;;;;;;14.27;10.10;;;;;;;15.83;79.63;96991.91;5106386;28;20048;-61
2021/07/24 03:00:09;;;;;;;12.88;10.05;;;;;;;15.82;79.66;96990.28;5107662;28;20055;-62
2021/07/24 03:02:36;;;;;;;13.73;9.55;;;;;;;15.81;79.93;96988.72;5106507;28;20112;-62
2021/07/24 03:05:03;;;;;;;14.48;9.73;;;;;;;15.86;79.67;96999.47;5107994;28;20112;-62
2021/07/24 03:07:30;;;;;;;13.70;9.80;;;;;;;15.51;79.39;96940.97;5106190;28;20060;-61
2021/07/24 03:09:57;;;;;;;14.50;9.88;;;;;;;15.81;79.85;96999.06;5106088;28;20044;-64
2021/07/24 03:12:24;;;;;;;14.52;10.10;;;;;;;15.29;79.75;96911.50;5107179;28;20055;-61
2021/07/24 03:14:50;;;;;;;12.88;9.50;;;;;;;15.88;79.47;96993.47;5106058;28;20051;-63
2021/07/24 03:17:17;;;;;;;14.90;9.63;;;;;;;15.99;79.34;96995.03;5105744;28;20047;-60
2021/07/24 03:19:44;;;;;;;14.05;10.23;;;;;;;15.96;78.87;96990.25;5106268;28;20744;-60
2021/07/24 03:22:11;;;;;;;13.95;9.52;;;;;;;15.97;78.49;96996.63;5106566;28;20086;-61
2021/07/24 03:24:38;;;;;;;16.00;10.18;;;;;;;16.02;78.12;96994.22;5106036;28;20063;-61
2021/07/24 03:27:05;;;;;;;13.13;9.93;;;;;;;16.05;77.91;97071.63;5105893;28;20050;-61
2021/07/24 03:29:31;;;;;;;13.48;10.05;;;;;;;16.09;77.55;96994.16;5107341;28;20123;-61
2021/07/24 03:31:58;;;;;;;12.60;9.82;;;;;;;15.93;77.84;96979.88;5105875;28;20059;-64
2021/07/24 03:34:25;;;;;;;12.30;9.10;;;;;;;15.43;78.10;96900.31;5107235;28;20516;-60
2021/07/24 03:36:52;;;;;;;17.33;9.82;;;;;;;16.08;77.69;96998.16;5107403;27;20062;-62
2021/07/24 03:39:19;;;;;;;16.15;10.10;;;;;;;15.98;78.35;96971.06;5106207;28;20056;-60
2021/07/24 03:41:45;;;;;;;13.90;9.52;;;;;;;15.85;77.36;96939.22;5105547;28;20140;-61
2021/07/24 03:44:12;;;;;;;13.25;9.20;;;;;;;16.30;76.72;96998.81;5105662;28;20509;-60
2021/07/24 03:46:40;;;;;;;12.82;8.90;;;;;;;15.98;76.23;96937.53;5106726;28;20056;-61
2021/07/24 03:49:07;;;;;;;12.85;8.23;;;;;;;16.02;76.24;96949.50;5106787;28;20659;-62
2021/07/24 03:51:34;;;;;;;14.35;8.45;;;;;;;16.43;76.38;97009.16;5106575;28;20434;-62
2021/07/24 03:54:00;;;;;;;13.00;8.63;;;;;;;15.33;76.59;96873.22;5105457;28;20477;-61
2021/07/24 03:56:27;;;;;;;16.25;9.18;;;;;;;16.25;76.06;96972.09;5105319;28;20687;-61
2021/07/24 03:58:54;;;;;;;15.45;9.10;;;;;;;16.60;76.00;97005.47;5105536;28;20060;-61
2021/07/24 04:01:24;;;;;;;10.52;8.10;;;;;;;16.64;76.04;97009.00;5106858;28;20062;-62
2021/07/24 04:03:52;;;;;;;13.98;8.15;;;;;;;16.73;75.74;97005.75;5105874;27;20059;-61
2021/07/24 04:06:25;;;;;;;10.48;7.75;;;;;;;16.17;75.32;96911.88;5104774;28;20441;-60
2021/07/24 04:08:54;;;;;;;13.63;8.23;;;;;;;16.73;75.46;97005.75;5106904;28;20052;-61
2021/07/24 04:11:23;;;;;;;14.02;8.40;;;;;;;16.61;75.40;96990.25;5106422;28;20054;-63
2021/07/24 04:13:50;;;;;;;11.98;8.18;;;;;;;16.66;75.90;97010.63;5106284;28;20077;-62
2021/07/24 04:16:17;;;;;;;15.52;8.48;;;;;;;15.64;75.84;96855.53;5105068;28;20054;-62
2021/07/24 04:18:45;;;;;;;13.60;7.88;;;;;;;16.87;75.58;97002.03;5105096;28;20094;-60
2021/07/24 04:21:13;;;;;;;11.40;8.02;;;;;;;16.33;75.24;96919.72;5106073;28;20140;-61
2021/07/24 04:23:40;;;;;;;12.10;8.13;;;;;;;17.10;74.57;97007.84;5104737;28;20051;-61
2021/07/24 04:26:07;;;;;;;12.00;8.35;;;;;;;17.35;73.52;97008.41;5105648;28;20051;-62
2021/07/24 04:28:34;;;;;;;16.15;8.52;;;;;;;16.77;72.68;96899.44;5104593;28;20051;-62
2021/07/24 04:31:01;;;;;;;13.23;7.97;;;;;;;17.46;72.09;96953.13;5106093;28;20090;-61
2021/07/24 04:33:28;;;;;;;12.48;8.05;;;;;;;17.70;70.98;96949.22;5104690;28;20051;-62
2021/07/24 04:35:54;;;;;;;11.18;7.90;;;;;;;18.19;69.77;97007.47;5105735;28;20047;-62
2021/07/24 04:38:21;;;;;;;14.77;7.53;;;;;;;18.07;69.97;96965.94;5105026;28;20069;-61
2021/07/24 04:40:48;;;;;;;11.82;7.93;;;;;;;18.59;68.89;96992.47;5106342;28;20402;-62
2021/07/24 04:43:15;;;;;;;11.80;7.20;;;;;;;18.68;68.18;96995.56;5104073;28;20426;-62
2021/07/24 04:45:43;;;;;;;13.05;7.40;;;;;;;18.85;67.70;96993.66;5104110;28;20052;-61
2021/07/24 04:48:10;;;;;;;10.02;7.20;;;;;;;18.98;66.81;97000.28;5103978;28;20166;-62
2021/07/24 04:50:42;;;;;;;12.63;7.38;;;;;;;19.24;66.13;96997.41;5103912;28;20656;-62
2021/07/24 04:53:14;;;;;;;18.38;7.88;;;;;;;19.29;65.63;96984.91;5105667;28;20062;-62
2021/07/24 04:55:41;;;;;;;42.97;9.32;;;;;;;19.44;65.55;96987.03;5103651;28;20139;-62
2021/07/24 04:58:09;;;;;;;12.80;8.30;;;;;;;19.57;65.20;96986.41;5103691;28;20047;-65
2021/07/24 05:00:42;;;;;;;13.60;8.38;;;;;;;19.58;65.00;96957.09;5105795;28;20058;-64
2021/07/24 05:03:12;;;;;;;;;;;;;;;20.06;64.15;97000.25;5105656;28;20051;-63
2021/07/24 05:05:41;;;;;;;20.88;7.95;;;;;;;19.86;64.72;96945.25;5105003;28;20019;-63
2021/07/24 05:08:09;;;;;;;11.60;7.40;;;;;;;20.48;63.54;96995.78;5105137;28;20209;-62
2021/07/24 05:10:37;;;;;;;15.35;7.65;;;;;;;20.64;61.33;96956.41;5103275;28;20054;-63
2021/07/24 05:13:04;;;;;;;14.13;8.18;;;;;;;20.56;61.21;96907.13;5103554;28;20047;-62
2021/07/24 05:15:31;;;;;;;15.57;7.85;;;;;;;21.11;60.06;96970.94;5104318;28;20066;-61
2021/07/24 05:17:58;;;;;;;14.25;8.25;;;;;;;21.18;60.14;96988.47;5087138;28;20048;-63
2021/07/24 05:20:25;;;;;;;13.60;7.47;;;;;;;21.40;59.63;96989.50;5103376;28;20417;-62
2021/07/24 05:22:51;;;;;;;11.75;7.32;;;;;;;21.33;58.28;96952.25;5104891;28;20050;-63
2021/07/24 05:25:18;;;;;;;14.20;8.95;;;;;;;21.62;58.67;96970.78;5103226;28;20143;-62
2021/07/24 05:27:45;;;;;;;20.45;11.23;;;;;;;21.58;58.43;96939.06;5105069;28;20475;-64
2021/07/24 05:30:12;;;;;;;16.58;10.43;;;;;;;21.96;56.71;96968.22;5103410;28;20052;-63
2021/07/24 05:32:41;;;;;;;17.17;9.80;;;;;;;22.49;56.26;96995.66;5103305;28;20721;-63
2021/07/24 05:35:09;;;;;;;16.33;8.40;;;;;;;22.75;55.34;96990.06;5104098;28;20087;-62
2021/07/24 05:37:36;;;;;;;14.25;8.63;;;;;;;22.76;53.85;96969.06;5103313;28;20131;-62
2021/07/24 05:40:05;;;;;;;14.75;8.38;;;;;;;22.99;53.66;96991.28;5105014;28;20628;-62
2021/07/24 05:42:31;;;;;;;8.73;7.47;;;;;;;22.87;54.42;96990.06;5104269;28;20062;-63
2021/07/24 05:44:58;;;;;;;15.30;8.18;;;;;;;22.82;54.75;96945.44;5104537;28;20131;-63
2021/07/24 05:47:25;;;;;;;14.63;7.38;;;;;;;23.08;54.72;96957.50;5103928;28;20728;-62
2021/07/24 05:49:52;;;;;;;17.80;8.10;;;;;;;23.60;53.99;96981.13;5103040;28;20052;-62
2021/07/24 05:52:19;;;;;;;11.13;7.28;;;;;;;23.61;54.26;96979.09;5102941;28;20112;-62
2021/07/24 05:54:47;;;;;;;10.05;7.80;;;;;;;23.67;54.45;96977.28;5103388;28;20058;-63
2021/07/24 05:57:14;;;;;;;16.20;6.88;;;;;;;23.69;54.54;96986.91;5102475;28;20047;-64
2021/07/24 05:59:41;;;;;;;15.18;7.32;;;;;;;23.58;54.84;96963.06;5102748;28;20059;-66
2021/07/24 06:02:11;;;;;;;16.13;7.53;;;;;;;23.79;54.88;96973.59;5102337;28;20088;-67
2021/07/24 06:04:44;;;;;;;14.80;7.13;;;;;;;24.13;54.56;96970.75;5098742;28;20082;-64
2021/07/24 06:07:11;;;;;;;14.93;7.15;;;;;;;24.09;52.98;96944.59;5099465;28;20389;-65
2021/07/24 06:09:38;;;;;;;15.90;7.50;;;;;;;24.50;52.04;96963.28;5102510;27;20547;-64
2021/07/24 06:12:07;;;;;;;18.63;6.60;;;;;;;24.65;52.02;96967.13;5102443;28;20043;-72
2021/07/24 06:14:34;;;;;;;15.98;6.65;;;;;;;24.83;51.30;96968.00;5102018;28;20048;-74
2021/07/24 06:17:02;;;;;;;12.43;6.55;;;;;;;23.82;51.59;96808.59;5100561;28;20059;-69
2021/07/24 06:19:29;;;;;;;14.05;7.72;;;;;;;24.84;51.99;96961.09;5102159;28;20378;-70
2021/07/24 06:21:56;;;;;;;18.55;8.48;;;;;;;24.80;51.92;96923.59;5103246;28;20053;-63
2021/07/24 06:24:22;;;;;;;11.40;7.22;;;;;;;24.91;51.13;96918.28;5103737;28;20047;-65
2021/07/24 06:26:52;;;;;;;18.30;7.15;;;;;;;24.22;50.11;96741.50;5101329;28;20055;-65
2021/07/24 06:29:19;;;;;;;9.30;7.28;;;;;;;25.90;48.46;96965.09;5103358;28;20512;-68
2021/07/24 06:31:46;;;;;;;10.90;7.00;;;;;;;25.75;48.92;96958.50;5102661;28;20502;-68
2021/07/24 06:34:12;;;;;;;11.95;7.10;;;;;;;25.85;48.92;96996.94;5103655;28;20047;-63
2021/07/24 06:36:39;;;;;;;8.48;7.13;;;;;;;24.02;47.18;96621.44;5102941;28;20050;-62
2021/07/24 06:39:06;;;;;;;10.98;6.93;;;;;;;25.82;46.39;96895.72;5102531;28;20521;-63
2021/07/24 06:41:34;;;;;;;9.73;7.65;;;;;;;25.84;45.27;96904.56;5098952;28;20419;-64
2021/07/24 06:44:02;;;;;;;9.07;6.07;;;;;;;26.20;41.14;96915.88;5083479;28;20048;-64
2021/07/24 06:46:29;;;;;;;8.10;6.82;;;;;;;26.57;42.46;96954.31;5083615;28;20044;-67
2021/07/24 06:48:59;;;;;;;8.27;6.03;;;;;;;26.79;39.62;96940.69;5103338;28;20056;-64
2021/07/24 06:51:26;;;;;;;7.90;5.80;;;;;;;27.05;38.43;96941.81;5103920;28;20059;-70
2021/07/24 06:53:53;;;;;;;7.72;6.63;;;;;;;27.20;36.40;96948.38;5103443;28;20058;-65
2021/07/24 06:56:19;;;;;;;9.93;6.43;;;;;;;26.74;37.26;96881.63;5101608;28;20518;-65
2021/07/24 06:58:50;;;;;;;6.85;6.15;;;;;;;27.45;36.90;96942.22;5091548;28;20055;-66
2021/07/24 07:01:17;;;;;;;8.93;6.53;;;;;;;27.16;36.77;96947.75;5103308;28;20055;-65
2021/07/24 07:03:44;;;;;;;7.43;5.85;;;;;;;27.49;37.19;96942.06;5103256;28;20474;-67
2021/07/24 07:06:13;;;;;;;9.43;6.18;;;;;;;27.65;36.35;96933.84;5103489;28;20918;-77
2021/07/24 07:08:40;;;;;;;8.20;6.57;;;;;;;27.38;36.82;96899.91;5101843;28;20051;-62
2021/07/24 07:11:08;;;;;;;10.48;6.10;;;;;;;27.02;36.62;96868.81;5102334;28;20052;-72
2021/07/24 07:13:35;;;;;;;7.53;6.80;;;;;;;27.48;36.23;96946.97;5101359;28;20058;-65
2021/07/24 07:16:04;;;;;;;7.63;6.13;;;;;;;27.13;35.99;96849.16;5101323;28;20520;-69
2021/07/24 07:18:31;;;;;;;11.68;7.07;;;;;;;26.40;36.66;96748.53;5101809;28;20052;-66
2021/07/24 07:20:58;;;;;;;14.02;6.43;;;;;;;26.13;35.77;96666.34;5101576;28;20536;-68
2021/07/24 07:23:24;;;;;;;10.70;6.22;;;;;;;27.62;35.79;96882.78;5103401;28;20532;-66
2021/07/24 07:25:51;;;;;;;7.10;6.22;;;;;;;27.99;35.10;96947.53;5102019;28;20051;-66
2021/07/24 07:28:18;;;;;;;7.70;6.90;;;;;;;27.94;34.60;96939.66;5101918;28;20047;-66
2021/07/24 07:30:45;;;;;;;9.27;7.85;;;;;;;27.63;35.20;96912.84;5101786;28;20611;-66
2021/07/24 07:33:12;;;;;;;13.43;7.82;;;;;;;27.96;34.94;96931.41;5103684;28;20149;-69
2021/07/24 07:35:39;;;;;;;8.18;7.32;;;;;;;27.67;35.42;96867.91;5100166;28;20075;-64
2021/07/24 07:38:05;;;;;;;10.73;7.82;;;;;;;28.28;35.05;96934.59;5099328;28;20050;-71
2021/07/24 07:40:37;;;;;;;10.70;7.55;;;;;;;28.23;35.94;96933.22;5104648;28;20070;-66
2021/07/24 07:43:05;;;;;;;9.25;7.45;;;;;;;28.44;34.01;96942.69;5104415;28;20428;-66
2021/07/24 07:45:32;;;;;;;7.53;6.63;;;;;;;28.15;34.33;96904.31;5107280;28;20063;-66
2021/07/24 07:47:59;;;;;;;8.18;6.43;;;;;;;28.56;34.53;96935.91;5105916;28;20055;-65
2021/07/24 07:50:26;;;;;;;8.35;6.10;;;;;;;28.76;34.47;96944.53;5104640;28;20047;-65
2021/07/24 07:52:52;;;;;;;10.32;6.95;;;;;;;28.85;33.74;96936.66;5104029;28;20047;-69
2021/07/24 07:55:19;;;;;;;7.75;6.97;;;;;;;28.68;33.78;96872.06;5104738;28;20050;-63
2021/07/24 07:57:46;;;;;;;13.30;6.93;;;;;;;28.90;33.80;96912.34;5106090;28;20047;-59
2021/07/24 08:00:13;;;;;;;7.72;6.90;;;;;;;29.15;33.63;96940.28;5105555;27;20055;-66
2021/07/24 08:02:40;;;;;;;7.57;6.57;;;;;;;28.53;33.50;96809.41;5105888;28;20343;-68
2021/07/24 08:05:08;;;;;;;10.10;7.15;;;;;;;29.49;33.36;96931.69;5103518;28;20051;-65
2021/07/24 08:07:34;;;;;;;8.88;8.02;;;;;;;29.60;32.53;96931.03;5106597;28;20150;-65
2021/07/24 08:10:01;;;;;;;7.70;6.57;;;;;;;28.72;32.41;96764.31;5106376;28;20087;-65
2021/07/24 08:12:28;;;;;;;10.70;8.30;;;;;;;29.35;32.46;96880.38;5102229;28;20043;-67
2021/07/24 08:14:57;;;;;;;12.15;7.05;;;;;;;28.99;32.92;96832.38;5105922;28;20051;-64
2021/07/24 08:17:24;;;;;;;8.60;7.28;;;;;;;29.71;32.23;96919.78;5103360;28;20085;-65
2021/07/24 08:19:51;;;;;;;9.93;7.30;;;;;;;29.16;32.32;96796.31;5105435;28;20494;-65
2021/07/24 08:22:18;;;;;;;12.65;9.45;;;;;;;29.49;32.12;96908.84;5106100;28;20051;-64
2021/07/24 08:24:44;;;;;;;12.30;7.50;;;;;;;29.60;32.65;96936.75;5106394;28;20053;-62
2021/07/24 08:27:11;;;;;;;10.57;9.30;;;;;;;29.46;33.57;96881.31;5105776;28;20055;-60
2021/07/24 08:29:38;;;;;;;8.55;6.28;;;;;;;28.02;34.16;96861.13;5104820;28;20048;-62
2021/07/24 08:32:09;;;;;;;8.15;6.80;;;;;;;28.84;34.20;96922.88;5104665;28;20044;-64
2021/07/24 08:34:36;;;;;;;31.88;15.45;;;;;;;29.24;33.84;96931.59;5104735;28;20058;-61
2021/07/24 08:37:03;;;;;;;20.58;10.73;;;;;;;29.00;34.52;96922.38;5104400;28;20043;-68
2021/07/24 08:39:30;;;;;;;12.27;7.63;;;;;;;28.90;33.88;96896.03;5103825;28;20113;-65
2021/07/24 08:41:57;;;;;;;11.00;8.82;;;;;;;29.07;33.94;96904.88;5105164;28;20060;-68
2021/07/24 08:44:24;;;;;;;12.65;9.02;;;;;;;28.56;34.39;96939.56;5103134;28;20120;-71
2021/07/24 08:46:53;;;;;;;9.95;7.22;;;;;;;27.52;34.67;96765.41;5103202;28;20055;-66
2021/07/24 08:49:20;;;;;;;11.55;8.57;;;;;;;28.95;34.24;96920.22;5104871;28;20055;-68
2021/07/24 08:51:49;;;;;;;8.18;6.10;;;;;;;28.39;34.91;96923.41;5102494;28;20051;-68
2021/07/24 08:54:18;;;;;;;8.70;7.88;;;;;;;28.38;33.91;96928.31;5103617;27;20051;-65
2021/07/24 08:56:47;;;;;;;11.80;7.88;;;;;;;28.59;34.68;96920.66;5102961;28;20447;-67
2021/07/24 08:59:18;;;;;;;14.43;8.38;;;;;;;28.89;34.32;96910.78;5102532;28;20055;-67
2021/07/24 09:01:54;;;;;;;11.23;7.53;;;;;;;28.97;33.72;96917.66;5103420;27;20143;-67
2021/07/24 09:04:24;;;;;;;9.93;7.88;;;;;;;29.06;33.68;96920.38;5104400;27;20075;-68
2021/07/24 09:06:56;;;;;;;7.80;6.45;;;;;;;28.89;33.49;96853.75;5099552;28;20127;-64
2021/07/24 09:09:23;;;;;;;12.20;7.75;;;;;;;29.62;33.28;96921.97;5105226;28;20054;-64
2021/07/24 09:11:50;;;;;;;8.60;7.07;;;;;;;29.65;32.46;96904.66;5104535;27;20051;-66
2021/07/24 09:14:17;;;;;;;17.02;11.55;;;;;;;29.34;33.36;96930.16;5104608;28;20056;-64
2021/07/24 09:16:44;;;;;;;9.68;8.15;;;;;;;28.60;34.10;96842.41;5103164;28;20555;-66
2021/07/24 09:19:11;;;;;;;8.55;7.65;;;;;;;29.14;33.21;96910.94;5104569;28;20066;-67
2021/07/24 09:21:38;;;;;;;8.20;7.13;;;;;;;28.85;35.21;96913.06;5102345;28;20074;-64
2021/07/24 09:24:23;;;;;;;7.07;6.40;;;;;;;28.35;34.12;96917.91;5104625;28;20043;-67
2021/07/24 09:26:50;;;;;;;13.50;9.52;;;;;;;28.53;33.91;96894.13;5103431;28;20072;-66
2021/07/24 09:29:18;;;;;;;17.42;11.10;;;;;;;28.20;33.62;96842.25;5103315;28;20583;-61
2021/07/24 09:31:46;;;;;;;10.18;6.82;;;;;;;27.42;35.42;96880.59;5103057;28;20134;-65
2021/07/24 09:34:14;;;;;;;10.27;8.60;;;;;;;27.83;34.59;96924.38;5104236;28;20058;-63
2021/07/24 09:36:43;;;;;;;14.80;8.20;;;;;;;27.69;35.51;96923.09;5103933;28;20055;-62
2021/07/24 09:39:12;;;;;;;12.13;6.75;;;;;;;27.78;35.13;96925.06;5104242;28;20047;-61
2021/07/24 09:41:42;;;;;;;13.05;7.97;;;;;;;27.66;35.11;96872.78;5102127;28;20051;-64
2021/07/24 09:44:09;;;;;;;8.65;6.82;;;;;;;28.78;34.19;96904.91;5103745;28;20424;-62
2021/07/24 09:46:36;;;;;;;11.45;8.27;;;;;;;29.35;33.59;96914.63;5103963;28;20054;-62
2021/07/24 09:49:14;;;;;;;8.50;7.03;;;;;;;29.21;33.13;96904.03;5104312;28;20057;-64
2021/07/24 09:51:45;;;;;;;7.88;6.70;;;;;;;28.18;34.23;96874.06;5102245;28;20410;-63
2021/07/24 09:54:27;;;;;;;8.85;7.05;;;;;;;29.22;32.99;96922.72;5104570;28;20697;-61
2021/07/24 09:56:56;;;;;;;9.05;6.90;;;;;;;29.55;33.34;96917.47;5104819;28;20528;-62
2021/07/24 09:59:28;;;;;;;8.15;7.32;;;;;;;28.62;34.53;96919.69;5104304;28;20079;-62
2021/07/24 10:01:59;;;;;;;10.30;7.07;;;;;;;28.84;34.53;96925.75;5103537;28;20498;-61
2021/07/24 10:04:37;;;;;;;11.43;10.23;;;;;;;28.55;35.18;96914.41;5104423;28;20433;-61
2021/07/24 10:07:29;;;;;;;13.13;7.97;;;;;;;28.21;34.77;96915.03;5103564;28;20039;-61
2021/07/24 10:09:58;;;;;;;10.67;7.00;;;;;;;27.94;35.79;96922.59;5104561;28;20047;-64
2021/07/24 10:12:24;;;;;;;9.43;7.45;;;;;;;27.73;35.11;96855.34;5102400;28;20232;-64
2021/07/24 10:14:52;;;;;;;8.50;6.70;;;;;;;28.07;35.08;96931.63;5101820;28;20070;-61
2021/07/24 10:17:19;;;;;;;14.32;8.82;;;;;;;28.60;34.86;96913.69;5103409;28;20058;-61
2021/07/24 10:19:46;;;;;;;9.77;7.82;;;;;;;28.25;34.94;96913.56;5102426;28;20032;-62
2021/07/24 10:22:13;;;;;;;9.30;8.15;;;;;;;28.18;34.16;96840.66;5102624;28;20085;-62
2021/07/24 10:24:40;;;;;;;12.02;9.13;;;;;;;28.84;34.47;96926.53;5103959;28;20083;-63
2021/07/24 10:27:10;;;;;;;8.43;6.53;;;;;;;28.78;34.59;96893.50;5103861;28;20415;-63
2021/07/24 10:30:05;;;;;;;12.18;6.88;;;;;;;28.35;34.69;96911.41;5101988;28;20058;-63
2021/07/24 10:32:37;;;;;;;13.43;9.45;;;;;;;28.44;34.26;96857.94;5103640;28;20060;-63
2021/07/24 10:35:05;;;;;;;13.20;9.23;;;;;;;28.94;33.50;96890.13;5103778;28;20083;-63
2021/07/24 10:37:43;;;;;;;11.63;7.80;;;;;;;28.82;33.87;96911.19;5103087;28;20051;-63
2021/07/24 10:40:25;;;;;;;12.85;8.13;;;;;;;28.26;34.45;96908.66;5102209;28;20091;-63
2021/07/24 10:42:52;;;;;;;11.38;7.68;;;;;;;28.73;34.45;96909.25;5102708;28;20640;-63
2021/07/24 10:45:34;;;;;;;10.10;7.88;;;;;;;28.37;34.68;96903.94;5103537;28;20044;-63
2021/07/24 10:48:13;;;;;;;10.90;9.68;;;;;;;28.31;34.65;96905.13;5101912;28;20112;-62
2021/07/24 10:50:52;;;;;;;7.65;6.28;;;;;;;28.19;34.84;96915.53;5103193;28;20502;-64
2021/07/24 10:53:24;;;;;;;7.57;6.88;;;;;;;27.17;34.91;96815.66;5103783;28;20104;-63
2021/07/24 10:55:52;;;;;;;9.10;8.20;;;;;;;27.74;34.90;96913.84;5102222;28;20096;-63
2021/07/24 10:58:22;;;;;;;8.82;7.93;;;;;;;27.09;35.46;96845.72;5102875;28;20045;-63
2021/07/24 11:00:52;;;;;;;11.88;8.25;;;;;;;28.25;34.80;96907.09;5102414;28;20871;-63
2021/07/24 11:03:29;;;;;;;7.32;6.50;;;;;;;28.00;34.66;96902.75;5103548;28;20059;-64
2021/07/24 11:05:56;;;;;;;7.97;6.82;;;;;;;28.30;33.99;96857.94;5103254;28;20075;-63
2021/07/24 11:09:03;;;;;;;7.47;6.38;;;;;;;28.05;34.68;96905.69;5101615;28;20147;-63
2021/07/24 11:11:46;;;;;;;7.65;6.95;;;;;;;27.85;34.12;96857.13;5101509;28;20058;-62
2021/07/24 11:14:45;;;;;;;9.82;7.95;;;;;;;28.44;33.68;96902.78;5106949;28;20091;-62
2021/07/24 11:17:16;;;;;;;11.85;8.75;;;;;;;29.47;33.57;96893.50;5102832;28;20056;-62
2021/07/24 11:19:50;;;;;;;10.52;8.20;;;;;;;29.33;33.62;96900.06;5105395;28;20127;-63
2021/07/24 11:22:27;;;;;;;9.43;7.97;;;;;;;29.58;33.88;96899.34;5106795;28;20063;-61
2021/07/24 11:24:57;;;;;;;10.88;8.35;;;;;;;29.82;32.70;96902.78;5105462;28;20091;-61
2021/07/24 11:27:26;;;;;;;11.40;9.30;;;;;;;29.82;33.07;96897.06;5106960;28;20051;-63
2021/07/24 11:29:54;;;;;;;18.23;13.77;;;;;;;29.91;32.68;96894.06;5107057;28;20055;-62
2021/07/24 11:32:25;;;;;;;16.10;12.63;;;;;;;29.50;32.98;96875.34;5105670;28;20055;-61
2021/07/24 11:35:06;;;;;;;13.27;9.77;;;;;;;29.78;32.99;96896.53;5106943;28;20056;-62